sensor_id;sensor_type;location;lat;lon;timestamp;pressure;altitude;pressure_sealevel;temperature;humidity
69855;BME280;57146;48.140;16.304;2023-02-18T00:01:36;99679.59;;;12.39;67.91
69855;BME280;57146;48.140;16.304;2023-02-18T00:04:03;99690.56;;;12.32;68.03
69855;BME280;57146;48.140;16.304;2023-02-18T00:06:32;99671.56;;;12.21;68.44
69855;BME280;57146;48.140;16.304;2023-02-18T00:08:59;99675.03;;;12.31;67.85
69855;BME280;57146;48.140;16.304;2023-02-18T00:11:28;99692.91;;;12.34;68.34
69855;BME280;57146;48.140;16.304;2023-02-18T00:13:59;99670.09;;;12.38;67.75
69855;BME280;57146;48.140;16.304;2023-02-18T00:16:28;99699.03;;;12.43;67.43
69855;BME280;57146;48.140;16.304;2023-02-18T00:19:06;99692.25;;;12.51;67.51
69855;BME280;57146;48.140;16.304;2023-02-18T00:21:34;99689.56;;;12.42;67.70
69855;BME280;57146;48.140;16.304;2023-02-18T00:24:03;99699.13;;;12.38;67.82
69855;BME280;57146;48.140;16.304;2023-02-18T00:26:31;99687.53;;;12.39;67.67
69855;BME280;57146;48.140;16.304;2023-02-18T00:28:58;99694.34;;;12.40;67.94
69855;BME280;57146;48.140;16.304;2023-02-18T00:31:29;99684.09;;;12.38;67.93
69855;BME280;57146;48.140;16.304;2023-02-18T00:33:58;99686.19;;;12.50;67.74
69855;BME280;57146;48.140;16.304;2023-02-18T00:36:26;99688.94;;;12.45;67.78
69855;BME280;57146;48.140;16.304;2023-02-18T00:38:57;99695.56;;;12.56;67.48
69855;BME280;57146;48.140;16.304;2023-02-18T00:41:26;99691.47;;;12.50;67.55
69855;BME280;57146;48.140;16.304;2023-02-18T00:43:54;99681.09;;;12.54;67.56
69855;BME280;57146;48.140;16.304;2023-02-18T00:46:22;99688.34;;;12.48;67.99
69855;BME280;57146;48.140;16.304;2023-02-18T00:48:49;99701.44;;;12.53;67.61
69855;BME280;57146;48.140;16.304;2023-02-18T00:51:16;99698.66;;;12.58;67.53
69855;BME280;57146;48.140;16.304;2023-02-18T00:53:43;99693.03;;;12.51;68.09
69855;BME280;57146;48.140;16.304;2023-02-18T00:56:10;99701.78;;;12.60;67.92
69855;BME280;57146;48.140;16.304;2023-02-18T00:58:37;99715.09;;;12.55;67.91
69855;BME280;57146;48.140;16.304;2023-02-18T01:01:06;99700.22;;;12.59;67.94
69855;BME280;57146;48.140;16.304;2023-02-18T01:03:37;99695.06;;;12.54;67.85
69855;BME280;57146;48.140;16.304;2023-02-18T01:06:08;99707.78;;;12.52;68.58
69855;BME280;57146;48.140;16.304;2023-02-18T01:08:37;99694.09;;;12.50;68.12
69855;BME280;57146;48.140;16.304;2023-02-18T01:11:07;99700.66;;;12.53;68.38
69855;BME280;57146;48.140;16.304;2023-02-18T01:13:34;99702.38;;;12.57;67.80
69855;BME280;57146;48.140;16.304;2023-02-18T01:16:01;99699.44;;;12.59;67.71
69855;BME280;57146;48.140;16.304;2023-02-18T01:18:29;99702.69;;;12.56;68.19
69855;BME280;57146;48.140;16.304;2023-02-18T01:20:56;99695.72;;;12.60;68.14
69855;BME280;57146;48.140;16.304;2023-02-18T01:23:23;99713.91;;;12.61;67.85
69855;BME280;57146;48.140;16.304;2023-02-18T01:25:51;99694.66;;;12.69;67.61
69855;BME280;57146;48.140;16.304;2023-02-18T01:28:18;99695.47;;;12.70;67.50
69855;BME280;57146;48.140;16.304;2023-02-18T01:30:45;99687.38;;;12.66;67.71
69855;BME280;57146;48.140;16.304;2023-02-18T01:33:12;99687.31;;;12.58;68.11
69855;BME280;57146;48.140;16.304;2023-02-18T01:35:39;99680.00;;;12.55;68.22
69855;BME280;57146;48.140;16.304;2023-02-18T01:38:07;99680.59;;;12.52;68.03
69855;BME280;57146;48.140;16.304;2023-02-18T01:40:35;99666.44;;;12.48;68.67
69855;BME280;57146;48.140;16.304;2023-02-18T01:43:02;99661.59;;;12.41;68.79
69855;BME280;57146;48.140;16.304;2023-02-18T01:48:12;99676.41;;;12.51;68.20
69855;BME280;57146;48.140;16.304;2023-02-18T01:50:51;99666.16;;;12.49;68.34
69855;BME280;57146;48.140;16.304;2023-02-18T01:53:23;99675.44;;;12.46;68.44
69855;BME280;57146;48.140;16.304;2023-02-18T01:55:52;99674.00;;;12.40;68.90
69855;BME280;57146;48.140;16.304;2023-02-18T01:58:20;99657.44;;;12.49;68.94
69855;BME280;57146;48.140;16.304;2023-02-18T02:00:47;99678.38;;;12.45;68.73
69855;BME280;57146;48.140;16.304;2023-02-18T02:03:13;99667.56;;;12.55;68.21
69855;BME280;57146;48.140;16.304;2023-02-18T02:05:42;99659.78;;;12.50;68.46
69855;BME280;57146;48.140;16.304;2023-02-18T02:08:15;99664.47;;;12.53;68.36
69855;BME280;57146;48.140;16.304;2023-02-18T02:11:03;99648.91;;;12.52;68.72
69855;BME280;57146;48.140;16.304;2023-02-18T02:13:40;99663.56;;;12.58;68.05
69855;BME280;57146;48.140;16.304;2023-02-18T02:16:30;99657.16;;;12.50;68.43
69855;BME280;57146;48.140;16.304;2023-02-18T02:22:08;99654.97;;;12.52;68.54
69855;BME280;57146;48.140;16.304;2023-02-18T02:24:57;99662.00;;;12.57;68.61
69855;BME280;57146;48.140;16.304;2023-02-18T02:27:45;99662.28;;;12.55;68.51
69855;BME280;57146;48.140;16.304;2023-02-18T02:30:57;99659.00;;;12.50;68.62
69855;BME280;57146;48.140;16.304;2023-02-18T02:36:18;99659.28;;;12.48;68.98
69855;BME280;57146;48.140;16.304;2023-02-18T02:39:00;99656.19;;;12.46;68.60
69855;BME280;57146;48.140;16.304;2023-02-18T02:42:06;99654.94;;;12.43;69.03
69855;BME280;57146;48.140;16.304;2023-02-18T02:44:55;99654.94;;;12.43;68.76
69855;BME280;57146;48.140;16.304;2023-02-18T02:47:32;99663.81;;;12.48;68.49
69855;BME280;57146;48.140;16.304;2023-02-18T02:50:09;99660.38;;;12.47;68.94
69855;BME280;57146;48.140;16.304;2023-02-18T02:52:49;99658.84;;;12.46;68.69
69855;BME280;57146;48.140;16.304;2023-02-18T02:55:19;99667.47;;;12.38;69.23
69855;BME280;57146;48.140;16.304;2023-02-18T02:57:53;99671.19;;;12.37;69.23
69855;BME280;57146;48.140;16.304;2023-02-18T03:09:17;99665.13;;;12.36;69.31
69855;BME280;57146;48.140;16.304;2023-02-18T03:15:23;99640.59;;;12.36;69.47
69855;BME280;57146;48.140;16.304;2023-02-18T03:18:03;99652.25;;;12.35;69.31
69855;BME280;57146;48.140;16.304;2023-02-18T03:20:36;99638.69;;;12.28;69.79
69855;BME280;57146;48.140;16.304;2023-02-18T03:23:10;99638.06;;;12.31;70.00
69855;BME280;57146;48.140;16.304;2023-02-18T03:25:39;99649.59;;;12.35;69.18
69855;BME280;57146;48.140;16.304;2023-02-18T03:28:08;99637.13;;;12.27;69.65
69855;BME280;57146;48.140;16.304;2023-02-18T03:30:48;99626.09;;;12.25;69.75
69855;BME280;57146;48.140;16.304;2023-02-18T03:33:20;99633.09;;;12.29;69.25
69855;BME280;57146;48.140;16.304;2023-02-18T03:35:53;99636.22;;;12.31;69.38
69855;BME280;57146;48.140;16.304;2023-02-18T03:38:31;99622.84;;;12.28;69.73
69855;BME280;57146;48.140;16.304;2023-02-18T03:41:00;99629.69;;;12.29;69.31
69855;BME280;57146;48.140;16.304;2023-02-18T03:43:28;99631.47;;;12.19;69.62
69855;BME280;57146;48.140;16.304;2023-02-18T03:45:55;99645.34;;;12.25;69.29
69855;BME280;57146;48.140;16.304;2023-02-18T03:48:23;99626.75;;;12.30;68.67
69855;BME280;57146;48.140;16.304;2023-02-18T03:50:51;99639.94;;;12.30;68.93
69855;BME280;57146;48.140;16.304;2023-02-18T03:53:18;99645.38;;;12.34;68.54
69855;BME280;57146;48.140;16.304;2023-02-18T03:55:45;99648.34;;;12.32;68.58
69855;BME280;57146;48.140;16.304;2023-02-18T03:58:12;99636.59;;;12.38;68.19
69855;BME280;57146;48.140;16.304;2023-02-18T04:00:39;99635.75;;;12.29;68.46
69855;BME280;57146;48.140;16.304;2023-02-18T04:03:06;99648.75;;;12.26;68.13
69855;BME280;57146;48.140;16.304;2023-02-18T04:05:32;99649.78;;;12.38;67.68
69855;BME280;57146;48.140;16.304;2023-02-18T04:07:59;99634.19;;;12.28;68.24
69855;BME280;57146;48.140;16.304;2023-02-18T04:10:26;99642.13;;;12.28;68.01
69855;BME280;57146;48.140;16.304;2023-02-18T04:12:53;99661.06;;;12.30;67.98
69855;BME280;57146;48.140;16.304;2023-02-18T04:15:20;99648.00;;;12.25;68.35
69855;BME280;57146;48.140;16.304;2023-02-18T04:17:47;99651.41;;;12.26;68.26
69855;BME280;57146;48.140;16.304;2023-02-18T04:20:14;99656.19;;;12.23;68.21
69855;BME280;57146;48.140;16.304;2023-02-18T04:22:41;99656.19;;;12.23;68.40
69855;BME280;57146;48.140;16.304;2023-02-18T04:25:08;99652.13;;;12.17;68.61
69855;BME280;57146;48.140;16.304;2023-02-18T04:27:34;99658.38;;;12.21;68.13
69855;BME280;57146;48.140;16.304;2023-02-18T04:30:03;99655.84;;;12.16;68.48
69855;BME280;57146;48.140;16.304;2023-02-18T04:32:31;99658.06;;;12.23;68.01
69855;BME280;57146;48.140;16.304;2023-02-18T04:34:58;99660.41;;;12.25;68.03
69855;BME280;57146;48.140;16.304;2023-02-18T04:37:24;99666.88;;;12.18;68.52
69855;BME280;57146;48.140;16.304;2023-02-18T04:39:51;99681.53;;;12.25;68.20
69855;BME280;57146;48.140;16.304;2023-02-18T04:42:18;99687.41;;;12.21;68.17
69855;BME280;57146;48.140;16.304;2023-02-18T04:44:45;99689.97;;;12.13;68.77
69855;BME280;57146;48.140;16.304;2023-02-18T04:47:13;99691.63;;;12.09;68.48
69855;BME280;57146;48.140;16.304;2023-02-18T04:49:40;99693.09;;;12.15;68.42
69855;BME280;57146;48.140;16.304;2023-02-18T04:52:06;99698.69;;;12.13;68.43
69855;BME280;57146;48.140;16.304;2023-02-18T04:54:33;99683.63;;;12.14;68.51
69855;BME280;57146;48.140;16.304;2023-02-18T04:57:00;99688.22;;;12.08;68.61
69855;BME280;57146;48.140;16.304;2023-02-18T04:59:27;99692.31;;;12.14;68.09
69855;BME280;57146;48.140;16.304;2023-02-18T05:01:54;99690.28;;;12.11;68.32
69855;BME280;57146;48.140;16.304;2023-02-18T05:04:21;99705.69;;;12.18;68.31
69855;BME280;57146;48.140;16.304;2023-02-18T05:06:48;99697.88;;;12.13;68.80
69855;BME280;57146;48.140;16.304;2023-02-18T05:09:15;99706.28;;;12.15;68.67
69855;BME280;57146;48.140;16.304;2023-02-18T05:11:42;99701.00;;;12.15;68.64
69855;BME280;57146;48.140;16.304;2023-02-18T05:14:10;99716.16;;;12.09;68.79
69855;BME280;57146;48.140;16.304;2023-02-18T05:16:37;99718.75;;;12.01;69.34
69855;BME280;57146;48.140;16.304;2023-02-18T05:19:04;99718.44;;;12.02;69.22
69855;BME280;57146;48.140;16.304;2023-02-18T05:21:32;99711.81;;;11.91;69.56
69855;BME280;57146;48.140;16.304;2023-02-18T05:23:59;99731.38;;;11.90;69.80
69855;BME280;57146;48.140;16.304;2023-02-18T05:26:26;99729.81;;;11.89;69.91
69855;BME280;57146;48.140;16.304;2023-02-18T05:28:53;99720.03;;;11.89;69.82
69855;BME280;57146;48.140;16.304;2023-02-18T05:31:20;99728.81;;;11.98;69.42
69855;BME280;57146;48.140;16.304;2023-02-18T05:33:47;99719.84;;;12.00;69.53
69855;BME280;57146;48.140;16.304;2023-02-18T05:36:14;99727.38;;;11.92;69.72
69855;BME280;57146;48.140;16.304;2023-02-18T05:38:40;99723.34;;;11.95;70.08
69855;BME280;57146;48.140;16.304;2023-02-18T05:41:07;99725.97;;;11.95;69.72
69855;BME280;57146;48.140;16.304;2023-02-18T05:43:34;99724.91;;;11.96;70.04
69855;BME280;57146;48.140;16.304;2023-02-18T05:46:01;99735.25;;;12.06;69.40
69855;BME280;57146;48.140;16.304;2023-02-18T05:48:28;99733.28;;;12.12;69.06
69855;BME280;57146;48.140;16.304;2023-02-18T05:50:55;99728.00;;;12.12;68.93
69855;BME280;57146;48.140;16.304;2023-02-18T05:53:22;99743.22;;;12.15;69.23
69855;BME280;57146;48.140;16.304;2023-02-18T05:55:49;99733.28;;;12.12;69.26
69855;BME280;57146;48.140;16.304;2023-02-18T05:58:15;99738.13;;;12.18;68.90
69855;BME280;57146;48.140;16.304;2023-02-18T06:00:44;99736.22;;;12.10;69.59
69855;BME280;57146;48.140;16.304;2023-02-18T06:03:10;99737.00;;;12.11;69.76
69855;BME280;57146;48.140;16.304;2023-02-18T06:05:37;99747.44;;;12.16;69.56
69855;BME280;57146;48.140;16.304;2023-02-18T06:08:04;99746.41;;;12.03;70.43
69855;BME280;57146;48.140;16.304;2023-02-18T06:10:31;99748.13;;;12.08;70.11
69855;BME280;57146;48.140;16.304;2023-02-18T06:12:58;99750.47;;;12.09;70.08
69855;BME280;57146;48.140;16.304;2023-02-18T06:15:25;99747.00;;;12.00;70.46
69855;BME280;57146;48.140;16.304;2023-02-18T06:17:52;99757.03;;;11.98;70.85
69855;BME280;57146;48.140;16.304;2023-02-18T06:20:19;99751.31;;;11.96;71.17
69855;BME280;57146;48.140;16.304;2023-02-18T06:22:46;99747.66;;;12.06;70.90
69855;BME280;57146;48.140;16.304;2023-02-18T06:25:13;99751.78;;;11.98;71.37
69855;BME280;57146;48.140;16.304;2023-02-18T06:27:40;99745.44;;;11.99;71.40
69855;BME280;57146;48.140;16.304;2023-02-18T06:30:07;99756.00;;;11.99;71.26
69855;BME280;57146;48.140;16.304;2023-02-18T06:32:34;99753.91;;;12.10;71.14
69855;BME280;57146;48.140;16.304;2023-02-18T06:35:02;99747.06;;;12.09;71.28
69855;BME280;57146;48.140;16.304;2023-02-18T06:37:29;99763.00;;;12.04;71.73
69855;BME280;57146;48.140;16.304;2023-02-18T06:39:57;99747.56;;;11.97;71.54
69855;BME280;57146;48.140;16.304;2023-02-18T06:42:24;99752.63;;;12.07;71.19
69855;BME280;57146;48.140;16.304;2023-02-18T06:44:51;99746.00;;;12.10;71.25
69855;BME280;57146;48.140;16.304;2023-02-18T06:47:18;99738.00;;;12.01;72.08
69855;BME280;57146;48.140;16.304;2023-02-18T06:49:45;99735.72;;;12.08;71.16
69855;BME280;57146;48.140;16.304;2023-02-18T06:52:12;99743.25;;;12.01;71.64
69855;BME280;57146;48.140;16.304;2023-02-18T06:54:38;99724.69;;;12.06;71.34
69855;BME280;57146;48.140;16.304;2023-02-18T06:57:05;99745.91;;;12.01;72.04
69855;BME280;57146;48.140;16.304;2023-02-18T06:59:32;99739.97;;;11.95;72.32
69855;BME280;57146;48.140;16.304;2023-02-18T07:01:59;99737.63;;;11.94;72.19
69855;BME280;57146;48.140;16.304;2023-02-18T07:04:26;99740.03;;;12.04;72.29
69855;BME280;57146;48.140;16.304;2023-02-18T07:06:53;99732.72;;;12.01;72.01
69855;BME280;57146;48.140;16.304;2023-02-18T07:09:19;99739.47;;;11.93;72.45
69855;BME280;57146;48.140;16.304;2023-02-18T07:11:46;99746.41;;;12.03;72.21
69855;BME280;57146;48.140;16.304;2023-02-18T07:14:13;99732.44;;;12.03;72.17
69855;BME280;57146;48.140;16.304;2023-02-18T07:16:40;99731.53;;;12.07;72.23
69855;BME280;57146;48.140;16.304;2023-02-18T07:19:07;99750.28;;;12.06;72.16
69855;BME280;57146;48.140;16.304;2023-02-18T07:21:34;99738.84;;;12.10;71.89
69855;BME280;57146;48.140;16.304;2023-02-18T07:24:00;99736.22;;;12.10;72.23
69855;BME280;57146;48.140;16.304;2023-02-18T07:26:28;99727.09;;;12.16;71.82
69855;BME280;57146;48.140;16.304;2023-02-18T07:28:54;99745.38;;;12.13;72.29
69855;BME280;57146;48.140;16.304;2023-02-18T07:31:21;99735.44;;;12.10;72.39
69855;BME280;57146;48.140;16.304;2023-02-18T07:33:48;99736.41;;;12.14;72.07
69855;BME280;57146;48.140;16.304;2023-02-18T07:36:15;99724.44;;;12.16;72.08
69855;BME280;57146;48.140;16.304;2023-02-18T07:38:42;99729.13;;;12.19;72.70
69855;BME280;57146;48.140;16.304;2023-02-18T07:41:21;99726.16;;;12.35;71.25
69855;BME280;57146;48.140;16.304;2023-02-18T07:43:49;99738.00;;;12.23;71.81
69855;BME280;57146;48.140;16.304;2023-02-18T07:46:16;99732.72;;;12.23;72.24
69855;BME280;57146;48.140;16.304;2023-02-18T07:48:43;99736.19;;;12.24;72.00
69855;BME280;57146;48.140;16.304;2023-02-18T07:51:11;99737.53;;;12.21;72.22
69855;BME280;57146;48.140;16.304;2023-02-18T07:53:39;99736.47;;;12.22;72.25
69855;BME280;57146;48.140;16.304;2023-02-18T07:56:06;99743.09;;;12.20;72.26
69855;BME280;57146;48.140;16.304;2023-02-18T07:58:36;99749.38;;;12.24;72.42
69855;BME280;57146;48.140;16.304;2023-02-18T08:01:06;99745.47;;;12.21;72.25
69855;BME280;57146;48.140;16.304;2023-02-18T08:03:33;99740.78;;;12.18;72.59
69855;BME280;57146;48.140;16.304;2023-02-18T08:06:01;99745.56;;;12.16;72.99
69855;BME280;57146;48.140;16.304;2023-02-18T08:08:30;99754.94;;;12.22;72.33
69855;BME280;57146;48.140;16.304;2023-02-18T08:11:00;99756.44;;;12.15;72.84
69855;BME280;57146;48.140;16.304;2023-02-18T08:13:39;99746.84;;;12.19;72.72
69855;BME280;57146;48.140;16.304;2023-02-18T08:16:05;99753.38;;;12.21;72.48
69855;BME280;57146;48.140;16.304;2023-02-18T08:18:34;99743.28;;;12.23;72.23
69855;BME280;57146;48.140;16.304;2023-02-18T08:21:00;99740.19;;;12.21;72.86
69855;BME280;57146;48.140;16.304;2023-02-18T08:23:27;99740.78;;;12.18;72.88
69855;BME280;57146;48.140;16.304;2023-02-18T08:25:54;99744.19;;;12.19;72.66
69855;BME280;57146;48.140;16.304;2023-02-18T08:28:22;99753.84;;;12.23;72.46
69855;BME280;57146;48.140;16.304;2023-02-18T08:30:52;99737.81;;;12.20;72.65
69855;BME280;57146;48.140;16.304;2023-02-18T08:33:20;99744.88;;;12.25;72.87
69855;BME280;57146;48.140;16.304;2023-02-18T08:35:48;99745.81;;;12.29;72.23
69855;BME280;57146;48.140;16.304;2023-02-18T08:38:16;99742.81;;;12.21;72.76
69855;BME280;57146;48.140;16.304;2023-02-18T08:40:42;99740.25;;;12.30;72.92
69855;BME280;57146;48.140;16.304;2023-02-18T08:43:09;99732.63;;;12.29;72.50
69855;BME280;57146;48.140;16.304;2023-02-18T08:45:37;99732.63;;;12.29;73.01
69855;BME280;57146;48.140;16.304;2023-02-18T08:48:05;99737.59;;;12.30;72.63
69855;BME280;57146;48.140;16.304;2023-02-18T08:50:45;99728.44;;;12.28;72.46
69855;BME280;57146;48.140;16.304;2023-02-18T08:53:12;99739.09;;;12.22;72.24
69855;BME280;57146;48.140;16.304;2023-02-18T08:55:40;99736.00;;;12.20;72.34
69855;BME280;57146;48.140;16.304;2023-02-18T08:58:07;99729.81;;;12.25;72.43
69855;BME280;57146;48.140;16.304;2023-02-18T09:00:35;99733.53;;;12.24;72.19
69855;BME280;57146;48.140;16.304;2023-02-18T09:03:02;99737.91;;;12.29;72.16
69855;BME280;57146;48.140;16.304;2023-02-18T09:05:29;99742.09;;;12.30;72.07
69855;BME280;57146;48.140;16.304;2023-02-18T09:07:56;99736.53;;;12.31;71.75
69855;BME280;57146;48.140;16.304;2023-02-18T09:10:23;99744.94;;;12.33;72.24
69855;BME280;57146;48.140;16.304;2023-02-18T09:12:50;99733.59;;;12.33;71.74
69855;BME280;57146;48.140;16.304;2023-02-18T09:15:17;99722.44;;;12.36;72.01
69855;BME280;57146;48.140;16.304;2023-02-18T09:17:44;99730.63;;;12.34;72.02
69855;BME280;57146;48.140;16.304;2023-02-18T09:20:11;99724.91;;;12.32;72.10
69855;BME280;57146;48.140;16.304;2023-02-18T09:22:38;99703.78;;;12.32;72.34
69855;BME280;57146;48.140;16.304;2023-02-18T09:25:05;99713.25;;;12.33;72.11
69855;BME280;57146;48.140;16.304;2023-02-18T09:27:32;99698.97;;;12.34;71.69
69855;BME280;57146;48.140;16.304;2023-02-18T09:29:59;99697.59;;;12.37;72.16
69855;BME280;57146;48.140;16.304;2023-02-18T09:32:26;99701.69;;;12.43;71.68
69855;BME280;57146;48.140;16.304;2023-02-18T09:35:02;99707.91;;;12.47;71.46
69855;BME280;57146;48.140;16.304;2023-02-18T09:37:29;99732.16;;;12.49;71.12
69855;BME280;57146;48.140;16.304;2023-02-18T09:39:56;99728.25;;;12.46;71.37
69855;BME280;57146;48.140;16.304;2023-02-18T09:42:30;99733.53;;;12.46;71.44
69855;BME280;57146;48.140;16.304;2023-02-18T09:45:02;99731.81;;;12.42;71.58
69855;BME280;57146;48.140;16.304;2023-02-18T09:47:37;99720.16;;;12.43;71.80
69855;BME280;57146;48.140;16.304;2023-02-18T09:50:15;99713.50;;;12.45;71.03
69855;BME280;57146;48.140;16.304;2023-02-18T09:52:44;99695.66;;;12.51;71.07
69855;BME280;57146;48.140;16.304;2023-02-18T09:55:18;99699.38;;;12.50;71.55
69855;BME280;57146;48.140;16.304;2023-02-18T09:57:49;99695.84;;;12.55;71.39
69855;BME280;57146;48.140;16.304;2023-02-18T10:00:31;99686.19;;;12.50;71.02
69855;BME280;57146;48.140;16.304;2023-02-18T10:03:07;99689.78;;;12.54;70.82
69855;BME280;57146;48.140;16.304;2023-02-18T10:05:42;99691.94;;;12.52;70.78
69855;BME280;57146;48.140;16.304;2023-02-18T10:08:26;99685.94;;;12.60;69.96
69855;BME280;57146;48.140;16.304;2023-02-18T10:10:54;99689.34;;;12.61;70.04
69855;BME280;57146;48.140;16.304;2023-02-18T10:13:24;99680.34;;;12.62;69.95
69855;BME280;57146;48.140;16.304;2023-02-18T10:15:51;99688.25;;;12.62;69.64
69855;BME280;57146;48.140;16.304;2023-02-18T10:18:34;99690.13;;;12.61;69.81
69855;BME280;57146;48.140;16.304;2023-02-18T10:21:08;99679.75;;;12.65;69.31
69855;BME280;57146;48.140;16.304;2023-02-18T10:23:39;99693.63;;;12.70;69.62
69855;BME280;57146;48.140;16.304;2023-02-18T10:26:12;99696.44;;;12.74;69.47
69855;BME280;57146;48.140;16.304;2023-02-18T10:28:41;99681.53;;;12.78;69.69
69855;BME280;57146;48.140;16.304;2023-02-18T10:31:09;99695.84;;;12.86;68.67
69855;BME280;57146;48.140;16.304;2023-02-18T10:33:55;99685.13;;;12.91;68.58
69855;BME280;57146;48.140;16.304;2023-02-18T10:36:44;99699.31;;;12.95;67.78
69855;BME280;57146;48.140;16.304;2023-02-18T10:43:21;99666.59;;;13.13;66.62
69855;BME280;57146;48.140;16.304;2023-02-18T10:46:03;99647.31;;;13.22;66.25
69855;BME280;57146;48.140;16.304;2023-02-18T10:51:29;99636.81;;;13.39;65.28
69855;BME280;57146;48.140;16.304;2023-02-18T10:53:58;99639.75;;;13.37;65.57
69855;BME280;57146;48.140;16.304;2023-02-18T10:56:38;99644.25;;;13.37;64.80
69855;BME280;57146;48.140;16.304;2023-02-18T10:59:19;99638.38;;;13.40;65.63
69855;BME280;57146;48.140;16.304;2023-02-18T11:02:01;99641.94;;;13.44;64.78
69855;BME280;57146;48.140;16.304;2023-02-18T11:04:39;99634.94;;;13.48;64.92
69855;BME280;57146;48.140;16.304;2023-02-18T11:07:24;99640.22;;;13.48;64.62
69855;BME280;57146;48.140;16.304;2023-02-18T11:09:59;99646.00;;;13.50;64.37
69855;BME280;57146;48.140;16.304;2023-02-18T11:12:43;99632.00;;;13.50;64.42
69855;BME280;57146;48.140;16.304;2023-02-18T11:17:43;99636.81;;;13.48;64.64
69855;BME280;57146;48.140;16.304;2023-02-18T11:20:33;99632.00;;;13.50;63.98
69855;BME280;57146;48.140;16.304;2023-02-18T11:25:35;99619.25;;;13.43;64.24
69855;BME280;57146;48.140;16.304;2023-02-18T11:30:58;99615.97;;;13.46;63.45
69855;BME280;57146;48.140;16.304;2023-02-18T11:35:57;99617.38;;;13.44;63.97
69855;BME280;57146;48.140;16.304;2023-02-18T11:38:42;99604.31;;;13.38;63.56
69855;BME280;57146;48.140;16.304;2023-02-18T11:41:33;99622.03;;;13.38;63.48
69855;BME280;57146;48.140;16.304;2023-02-18T11:44:04;99612.84;;;13.35;63.46
69855;BME280;57146;48.140;16.304;2023-02-18T11:46:31;99606.19;;;13.38;63.39
69855;BME280;57146;48.140;16.304;2023-02-18T11:49:21;99604.59;;;13.37;63.61
69855;BME280;57146;48.140;16.304;2023-02-18T11:51:49;99595.28;;;13.39;63.18
69855;BME280;57146;48.140;16.304;2023-02-18T11:54:23;99587.19;;;13.45;62.48
69855;BME280;57146;48.140;16.304;2023-02-18T11:56:58;99593.56;;;13.44;62.47
69855;BME280;57146;48.140;16.304;2023-02-18T11:59:29;99579.56;;;13.43;62.86
69855;BME280;57146;48.140;16.304;2023-02-18T12:04:40;99562.31;;;13.54;62.25
69855;BME280;57146;48.140;16.304;2023-02-18T12:07:38;99556.72;;;13.56;62.62
69855;BME280;57146;48.140;16.304;2023-02-18T12:10:03;99552.03;;;13.61;62.72
69855;BME280;57146;48.140;16.304;2023-02-18T12:15:20;99530.25;;;13.64;63.00
69855;BME280;57146;48.140;16.304;2023-02-18T12:26:28;99520.72;;;13.89;61.44
69855;BME280;57146;48.140;16.304;2023-02-18T12:34:46;99508.88;;;13.87;61.46
69855;BME280;57146;48.140;16.304;2023-02-18T12:40:28;99504.25;;;13.84;62.09
69855;BME280;57146;48.140;16.304;2023-02-18T12:43:21;99484.28;;;13.86;61.40
69855;BME280;57146;48.140;16.304;2023-02-18T12:51:35;99468.69;;;14.02;61.49
69855;BME280;57146;48.140;16.304;2023-02-18T13:13:18;99435.41;;;14.60;57.84
69855;BME280;57146;48.140;16.304;2023-02-18T13:15:55;99416.47;;;14.71;56.75
69855;BME280;57146;48.140;16.304;2023-02-18T13:18:32;99412.78;;;14.84;56.92
69855;BME280;57146;48.140;16.304;2023-02-18T13:21:06;99411.69;;;14.85;56.11
69855;BME280;57146;48.140;16.304;2023-02-18T13:23:49;99393.25;;;14.89;55.69
69855;BME280;57146;48.140;16.304;2023-02-18T13:26:18;99379.66;;;14.90;55.19
69855;BME280;57146;48.140;16.304;2023-02-18T13:29:23;99371.34;;;14.79;55.92
69855;BME280;57146;48.140;16.304;2023-02-18T13:34:36;99370.91;;;14.77;54.91
69855;BME280;57146;48.140;16.304;2023-02-18T13:39:50;99354.03;;;14.82;54.27
69855;BME280;57146;48.140;16.304;2023-02-18T13:47:44;99328.03;;;14.96;53.52
69855;BME280;57146;48.140;16.304;2023-02-18T13:52:49;99348.16;;;15.09;51.59
69855;BME280;57146;48.140;16.304;2023-02-18T13:55:40;99333.81;;;15.11;52.50
69855;BME280;57146;48.140;16.304;2023-02-18T13:58:18;99321.88;;;15.17;51.69
69855;BME280;57146;48.140;16.304;2023-02-18T14:00:54;99307.63;;;15.09;52.82
69855;BME280;57146;48.140;16.304;2023-02-18T14:03:50;99309.16;;;15.10;51.87
69855;BME280;57146;48.140;16.304;2023-02-18T14:06:27;99306.53;;;15.10;52.28
69855;BME280;57146;48.140;16.304;2023-02-18T14:11:54;99305.41;;;15.11;52.48
69855;BME280;57146;48.140;16.304;2023-02-18T14:22:31;99293.25;;;15.10;52.71
69855;BME280;57146;48.140;16.304;2023-02-18T14:27:32;99281.53;;;14.99;52.98
69855;BME280;57146;48.140;16.304;2023-02-18T14:32:44;99290.25;;;14.87;53.30
69855;BME280;57146;48.140;16.304;2023-02-18T14:44:36;99273.00;;;14.81;53.79
69855;BME280;57146;48.140;16.304;2023-02-18T14:47:24;99268.00;;;14.79;54.14
69855;BME280;57146;48.140;16.304;2023-02-18T14:49:57;99273.06;;;14.72;54.66
69855;BME280;57146;48.140;16.304;2023-02-18T14:52:39;99243.59;;;14.74;54.41
69855;BME280;57146;48.140;16.304;2023-02-18T14:55:19;99256.38;;;14.72;54.69
69855;BME280;57146;48.140;16.304;2023-02-18T14:58:21;99253.31;;;14.70;55.03
69855;BME280;57146;48.140;16.304;2023-02-18T15:00:42;99258.72;;;14.73;54.37
69855;BME280;57146;48.140;16.304;2023-02-18T15:03:13;99258.16;;;14.68;55.14
69855;BME280;57146;48.140;16.304;2023-02-18T15:05:41;99260.38;;;14.66;55.02
69855;BME280;57146;48.140;16.304;2023-02-18T15:08:24;99264.31;;;14.59;54.92
69855;BME280;57146;48.140;16.304;2023-02-18T15:11:00;99260.56;;;14.60;54.66
69855;BME280;57146;48.140;16.304;2023-02-18T15:13:33;99248.16;;;14.52;55.50
69855;BME280;57146;48.140;16.304;2023-02-18T15:16:04;99250.59;;;14.57;55.44